Omskiy-141 — UGZK — position and weather

sailwx.info

Track history (hours):
 
Tides and Currents Weather Stations Pressure Air Temp Water Temp Dewpoint Dewpoint Depression Visibility Wind Speed Wind Dir Waves Ship Positions

Omskiy-141

Last reported at 2017-May-22 03:30 UTC. Time now 2017-May-27 15:46 UTC.
Position N 59°47' E 030°43'.

Length 108 m; draft 2.6 m.

Type: Cargo ship. MMSI: 273310600.

Date/timePositionNaut miles runAvg speedWind from/ knotsBaromVisibWave heightAir tempDewpointWater temp
2017-May-22 03:30N 59°47' E 030°43'3 5.0
2017-May-22 02:58N 59°48' E 030°38'3 5.4
2017-May-22 02:29N 59°49' E 030°35'2 4.4
2017-May-22 02:00N 59°50' E 030°31'3 5.1
2017-May-22 01:30N 59°52' E 030°28'2 3.9
2017-May-22 01:00N 59°54' E 030°26'2 4.2
2017-May-22 00:30N 59°56' E 030°24'0 0.0
2017-May-22 00:00N 59°56' E 030°24'0 0.0
2017-May-21 23:30N 59°56' E 030°24'2 3.3
2017-May-21 23:00N 59°57' E 030°22'3 6.6
2017-May-21 22:30N 59°55' E 030°16'2 3.3
2017-May-21 22:00N 59°54' E 030°14'0 0.1
2017-May-21 21:30N 59°54' E 030°14'0 0.0
2017-May-21 21:00N 59°54' E 030°14'0 0.0
2017-May-21 20:30N 59°54' E 030°14'0 0.0
2017-May-21 20:00N 59°54' E 030°14'0 0.0
2017-May-21 19:30N 59°54' E 030°14'0 0.0
2017-May-21 19:00N 59°54' E 030°14'0 0.0
2017-May-21 18:30N 59°54' E 030°14'0 0.0
2017-May-21 18:00N 59°54' E 030°14'0 0.0
2017-May-21 17:30N 59°54' E 030°14'0 0.0
2017-May-21 17:00N 59°54' E 030°14'0 0.0
2017-May-21 16:27N 59°54' E 030°14'0 0.0
2017-May-21 16:00N 59°54' E 030°14'0 0.0
2017-May-21 15:30N 59°54' E 030°14'0 0.0
2017-May-21 15:00N 59°54' E 030°14'0 0.0
2017-May-21 14:00N 59°54' E 030°14'0 0.0
2017-May-21 13:30N 59°54' E 030°14'0 0.0
2017-May-21 13:00N 59°54' E 030°14'0 0.0
2017-May-21 12:30N 59°54' E 030°14'0 0.0
2017-May-21 12:00N 59°54' E 030°14'0 0.0
2017-May-21 11:30N 59°54' E 030°14'0 0.0
2017-May-21 11:00N 59°54' E 030°14'0 0.0
2017-May-21 10:30N 59°54' E 030°14'0 0.0
2017-May-21 10:00N 59°54' E 030°14'0 0.0
2017-May-21 08:27N 59°54' E 030°14'0 0.0
2017-May-21 08:00N 59°54' E 030°14'0 0.0
2017-May-21 07:30N 59°54' E 030°14'0 0.0
2017-May-21 06:54N 59°54' E 030°14'0 0.0
2017-May-21 06:30N 59°54' E 030°14'0 0.0
2017-May-21 06:00N 59°54' E 030°14'0 0.0
2017-May-21 05:30N 59°54' E 030°14'0 0.0
2017-May-21 05:00N 59°54' E 030°14'0 0.0
2017-May-21 04:30N 59°54' E 030°14'1 2.0
2017-May-21 04:00N 59°54' E 030°13'3 5.6
2017-May-21 03:30N 59°54' E 030°07'4 8.8
2017-May-21 03:00N 59°56' E 029°59'4 8.8
2017-May-21 02:30N 59°57' E 029°51'21 7.3
2017-May-20 23:37N 60°01' E 029°10'2 6.3
2017-May-20 23:20N 60°01' E 029°06'2 6.0
2017-May-20 22:58N 60°01' E 029°02'3 6.0
2017-May-20 22:23N 60°02' E 028°55'3 6.4
2017-May-20 21:59N 60°02' E 028°49'3 7.0
2017-May-20 21:30N 60°02' E 028°43'3 6.9
2017-May-20 21:00N 60°02' E 028°36'3 7.1
2017-May-20 20:30N 60°02' E 028°29'4 7.6
2017-May-20 20:00N 60°04' E 028°22'4 8.2
2017-May-20 19:30N 60°07' E 028°16'4 8.1
2017-May-20 19:00N 60°08' E 028°08'4 8.0
2017-May-20 18:30N 60°09' E 028°00'4 7.9
2017-May-20 18:00N 60°10' E 027°52'4 7.4
2017-May-20 17:29N 60°10' E 027°45'4 8.1
2017-May-20 16:59N 60°08' E 027°38'4 8.5
2017-May-20 16:30N 60°06' E 027°31'4 8.7
2017-May-20 15:59N 60°03' E 027°23'109 8.6
2017-May-20 03:19N 59°38' E 023°51'9 9.0
2017-May-20 02:16N 59°35' E 023°33'3 9.2
2017-May-20 01:56N 59°34' E 023°28'115 8.2
2017-May-19 11:54N 59°47' E 019°41'4 9.8
2017-May-19 11:30N 59°50' E 019°36'5 9.7
2017-May-19 11:00N 59°54' E 019°30'5 9.7
2017-May-19 10:30N 59°58' E 019°23'5 9.7
2017-May-19 10:00N 60°01' E 019°17'5 9.6
2017-May-19 09:30N 60°05' E 019°11'5 9.7
2017-May-19 09:00N 60°09' E 019°04'4 8.7
2017-May-19 08:30N 60°13' E 019°01'4 8.9
2017-May-19 08:00N 60°17' E 019°00'5 9.1
2017-May-19 07:30N 60°22' E 018°59'  
2017-May-16 16:25N 60°28' E 019°01'3 8.1
2017-May-16 16:00N 60°24' E 019°01'4 8.3
2017-May-16 15:30N 60°20' E 019°01'4 8.1
2017-May-16 15:00N 60°16' E 019°03'4 7.9
2017-May-16 14:28N 60°12' E 019°06'8 8.0
2017-May-16 13:30N 60°06' E 019°15'4 8.1
2017-May-16 12:59N 60°03' E 019°21'15 7.7
2017-May-16 10:59N 59°51' E 019°41'51 7.2
2017-May-16 03:49N 59°36' E 021°18'5 7.6
2017-May-16 03:13N 59°36' E 021°27'2 7.6
2017-May-16 03:00N 59°36' E 021°30'4 7.6
2017-May-16 02:29N 59°36' E 021°38'4 7.6
2017-May-16 02:00N 59°36' E 021°45'42 7.7
2017-May-15 20:37N 59°38' E 023°07'1 7.8
2017-May-15 20:27N 59°39' E 023°10'3 7.8
2017-May-15 20:00N 59°40' E 023°17'4 7.9
2017-May-15 19:30N 59°41' E 023°24'4 7.7
2017-May-15 19:00N 59°41' E 023°32'4 7.7
2017-May-15 18:30N 59°42' E 023°39'4 7.8
2017-May-15 18:00N 59°43' E 023°47'4 8.3
2017-May-15 17:30N 59°44' E 023°55'4 8.0
2017-May-15 16:57N 59°45' E 024°03'70 7.8
2017-May-15 07:58N 59°60' E 026°20'4 7.9
2017-May-15 07:30N 60°01' E 026°27'4 7.9
2017-May-15 07:00N 60°02' E 026°34'4 7.7
2017-May-15 06:30N 60°01' E 026°42'4 7.8
2017-May-15 05:59N 60°01' E 026°50'6 7.7
2017-May-15 05:14N 59°60' E 027°02'3 7.7
2017-May-15 04:47N 60°01' E 027°08'3 7.6
2017-May-15 04:25N 60°03' E 027°13'3 7.5
2017-May-15 04:00N 60°04' E 027°18'4 7.5
2017-May-15 03:29N 60°06' E 027°25'4 7.4
2017-May-15 03:00N 60°08' E 027°31'4 7.5
2017-May-15 02:30N 60°10' E 027°37'4 7.5
2017-May-15 02:00N 60°12' E 027°44'4 7.1
2017-May-15 01:30N 60°12' E 027°51'4 7.6
2017-May-15 00:59N 60°10' E 027°59'4 7.6
2017-May-15 00:30N 60°09' E 028°06'4 7.8
2017-May-15 00:00N 60°08' E 028°14'4 7.7
2017-May-14 23:29N 60°06' E 028°21'4 7.9
2017-May-14 23:00N 60°04' E 028°27'4 7.7
2017-May-14 22:30N 60°03' E 028°34'4 7.8
2017-May-14 22:00N 60°03' E 028°42'28 7.9
2017-May-14 18:26N 60°00' E 029°38'4 9.3
2017-May-14 18:00N 59°59' E 029°45'4 8.7
2017-May-14 17:30N 59°57' E 029°53'4 8.8
2017-May-14 17:00N 59°55' E 030°01'4 7.9
2017-May-14 16:30N 59°54' E 030°08'3 5.7
2017-May-14 16:00N 59°54' E 030°14'0 0.3
2017-May-14 15:28N 59°55' E 030°14'0 0.0
2017-May-14 14:58N 59°55' E 030°14'0 0.0
2017-May-14 14:28N 59°55' E 030°14'0 0.0
2017-May-14 13:28N 59°55' E 030°14'0 0.0
2017-May-14 12:58N 59°55' E 030°14'0 0.0
2017-May-14 12:28N 59°55' E 030°14'0 0.0
2017-May-14 11:58N 59°55' E 030°14'0 0.0
2017-May-14 11:28N 59°55' E 030°14'0 0.0
2017-May-14 10:58N 59°55' E 030°14'0 0.0
2017-May-14 10:28N 59°55' E 030°14'0 0.0
2017-May-14 09:58N 59°55' E 030°14'0 0.0
2017-May-14 09:28N 59°55' E 030°14'0 0.0
2017-May-14 08:58N 59°55' E 030°14'0 0.0
2017-May-14 08:25N 59°55' E 030°14'0 0.0
2017-May-14 07:58N 59°55' E 030°14'0 0.0
2017-May-14 07:28N 59°55' E 030°14'0 0.0
2017-May-14 06:58N 59°55' E 030°14'0 0.0
2017-May-14 06:25N 59°55' E 030°14'0 0.0
2017-May-14 05:58N 59°55' E 030°14'0 0.0
2017-May-14 05:29N 59°55' E 030°14'0 0.0
2017-May-14 04:59N 59°55' E 030°14'0 0.0
2017-May-14 04:29N 59°55' E 030°14'0 0.0
2017-May-14 03:59N 59°55' E 030°14'0 0.0
2017-May-14 03:29N 59°55' E 030°14'0 0.0
2017-May-14 02:59N 59°55' E 030°14'0 0.0
2017-May-14 02:29N 59°55' E 030°14'0 0.0
2017-May-14 01:59N 59°55' E 030°14'0 0.0
2017-May-14 01:30N 59°55' E 030°14'1 1.4
2017-May-14 01:00N 59°55' E 030°15'4 7.4
2017-May-14 00:31N 59°57' E 030°21'3 5.9
2017-May-14 00:01N 59°55' E 030°25'5 9.3
2017-May-13 23:30N 59°51' E 030°30'0 0.3
2017-May-13 22:59N 59°51' E 030°30'0 0.0
2017-May-13 22:23N 59°51' E 030°30'0 0.0
2017-May-13 21:59N 59°51' E 030°30'0 0.0
2017-May-13 21:11N 59°51' E 030°30'0 0.0
2017-May-13 20:53N 59°51' E 030°30'0 0.0
2017-May-13 20:26N 59°51' E 030°30'0 0.0
2017-May-13 19:56N 59°51' E 030°30'0 0.0
2017-May-13 19:29N 59°51' E 030°30'0 0.0
2017-May-13 18:50N 59°51' E 030°30'0 0.0
2017-May-13 18:23N 59°51' E 030°30'0 0.0
2017-May-13 17:53N 59°51' E 030°30'0 0.0
2017-May-13 17:29N 59°51' E 030°30'0 0.0
2017-May-13 16:59N 59°51' E 030°30'0 0.0
2017-May-13 16:26N 59°51' E 030°30'0 0.0
2017-May-13 15:56N 59°51' E 030°30'0 0.0
2017-May-13 15:29N 59°51' E 030°30'0 0.0
2017-May-13 14:56N 59°51' E 030°30'0 0.0
2017-May-13 14:26N 59°51' E 030°30'0 0.0
2017-May-13 13:29N 59°51' E 030°30'0 0.0
2017-May-13 12:50N 59°51' E 030°30'0 0.0
2017-May-13 12:30N 59°51' E 030°30'0 0.0
2017-May-13 12:00N 59°51' E 030°30'0 0.1
2017-May-13 11:30N 59°51' E 030°30'0 0.4
2017-May-13 11:00N 59°51' E 030°30'3 6.8
2017-May-13 10:30N 59°49' E 030°36'  
Track history (hours):
 
Tides and Currents Weather Stations Pressure Air Temp Water Temp Dewpoint Dewpoint Depression Visibility Wind Speed Wind Dir Waves Ship Positions

Omskiy-141

Last reported at 2017-May-22 03:30 UTC. Time now 2017-May-27 15:46 UTC.
Position N 59°47' E 030°43'.

Length 108 m; draft 2.6 m.

Type: Cargo ship. MMSI: 273310600.

Date/timePositionNaut miles runAvg speedWind from/ knotsBaromVisibWave heightAir tempDewpointWater temp
2017-May-22 03:30N 59°47' E 030°43'3 5.0
2017-May-22 02:58N 59°48' E 030°38'3 5.4
2017-May-22 02:29N 59°49' E 030°35'2 4.4
2017-May-22 02:00N 59°50' E 030°31'3 5.1
2017-May-22 01:30N 59°52' E 030°28'2 3.9
2017-May-22 01:00N 59°54' E 030°26'2 4.2
2017-May-22 00:30N 59°56' E 030°24'0 0.0
2017-May-22 00:00N 59°56' E 030°24'0 0.0
2017-May-21 23:30N 59°56' E 030°24'2 3.3
2017-May-21 23:00N 59°57' E 030°22'3 6.6
2017-May-21 22:30N 59°55' E 030°16'2 3.3
2017-May-21 22:00N 59°54' E 030°14'0 0.1
2017-May-21 21:30N 59°54' E 030°14'0 0.0
2017-May-21 21:00N 59°54' E 030°14'0 0.0
2017-May-21 20:30N 59°54' E 030°14'0 0.0
2017-May-21 20:00N 59°54' E 030°14'0 0.0
2017-May-21 19:30N 59°54' E 030°14'0 0.0
2017-May-21 19:00N 59°54' E 030°14'0 0.0
2017-May-21 18:30N 59°54' E 030°14'0 0.0
2017-May-21 18:00N 59°54' E 030°14'0 0.0
2017-May-21 17:30N 59°54' E 030°14'0 0.0
2017-May-21 17:00N 59°54' E 030°14'0 0.0
2017-May-21 16:27N 59°54' E 030°14'0 0.0
2017-May-21 16:00N 59°54' E 030°14'0 0.0
2017-May-21 15:30N 59°54' E 030°14'0 0.0
2017-May-21 15:00N 59°54' E 030°14'0 0.0
2017-May-21 14:00N 59°54' E 030°14'0 0.0
2017-May-21 13:30N 59°54' E 030°14'0 0.0
2017-May-21 13:00N 59°54' E 030°14'0 0.0
2017-May-21 12:30N 59°54' E 030°14'0 0.0
2017-May-21 12:00N 59°54' E 030°14'0 0.0
2017-May-21 11:30N 59°54' E 030°14'0 0.0
2017-May-21 11:00N 59°54' E 030°14'0 0.0
2017-May-21 10:30N 59°54' E 030°14'0 0.0
2017-May-21 10:00N 59°54' E 030°14'0 0.0
2017-May-21 08:27N 59°54' E 030°14'0 0.0
2017-May-21 08:00N 59°54' E 030°14'0 0.0
2017-May-21 07:30N 59°54' E 030°14'0 0.0
2017-May-21 06:54N 59°54' E 030°14'0 0.0
2017-May-21 06:30N 59°54' E 030°14'0 0.0
2017-May-21 06:00N 59°54' E 030°14'0 0.0
2017-May-21 05:30N 59°54' E 030°14'0 0.0
2017-May-21 05:00N 59°54' E 030°14'0 0.0
2017-May-21 04:30N 59°54' E 030°14'1 2.0
2017-May-21 04:00N 59°54' E 030°13'3 5.6
2017-May-21 03:30N 59°54' E 030°07'4 8.8
2017-May-21 03:00N 59°56' E 029°59'4 8.8
2017-May-21 02:30N 59°57' E 029°51'21 7.3
2017-May-20 23:37N 60°01' E 029°10'2 6.3
2017-May-20 23:20N 60°01' E 029°06'2 6.0
2017-May-20 22:58N 60°01' E 029°02'3 6.0
2017-May-20 22:23N 60°02' E 028°55'3 6.4
2017-May-20 21:59N 60°02' E 028°49'3 7.0
2017-May-20 21:30N 60°02' E 028°43'3 6.9
2017-May-20 21:00N 60°02' E 028°36'3 7.1
2017-May-20 20:30N 60°02' E 028°29'4 7.6
2017-May-20 20:00N 60°04' E 028°22'4 8.2
2017-May-20 19:30N 60°07' E 028°16'4 8.1
2017-May-20 19:00N 60°08' E 028°08'4 8.0
2017-May-20 18:30N 60°09' E 028°00'4 7.9
2017-May-20 18:00N 60°10' E 027°52'4 7.4
2017-May-20 17:29N 60°10' E 027°45'4 8.1
2017-May-20 16:59N 60°08' E 027°38'4 8.5
2017-May-20 16:30N 60°06' E 027°31'4 8.7
2017-May-20 15:59N 60°03' E 027°23'109 8.6
2017-May-20 03:19N 59°38' E 023°51'9 9.0
2017-May-20 02:16N 59°35' E 023°33'3 9.2
2017-May-20 01:56N 59°34' E 023°28'115 8.2
2017-May-19 11:54N 59°47' E 019°41'4 9.8
2017-May-19 11:30N 59°50' E 019°36'5 9.7
2017-May-19 11:00N 59°54' E 019°30'5 9.7
2017-May-19 10:30N 59°58' E 019°23'5 9.7
2017-May-19 10:00N 60°01' E 019°17'5 9.6
2017-May-19 09:30N 60°05' E 019°11'5 9.7
2017-May-19 09:00N 60°09' E 019°04'4 8.7
2017-May-19 08:30N 60°13' E 019°01'4 8.9
2017-May-19 08:00N 60°17' E 019°00'5 9.1
2017-May-19 07:30N 60°22' E 018°59'  
2017-May-16 16:25N 60°28' E 019°01'3 8.1
2017-May-16 16:00N 60°24' E 019°01'4 8.3
2017-May-16 15:30N 60°20' E 019°01'4 8.1
2017-May-16 15:00N 60°16' E 019°03'4 7.9
2017-May-16 14:28N 60°12' E 019°06'8 8.0
2017-May-16 13:30N 60°06' E 019°15'4 8.1
2017-May-16 12:59N 60°03' E 019°21'15 7.7
2017-May-16 10:59N 59°51' E 019°41'51 7.2
2017-May-16 03:49N 59°36' E 021°18'5 7.6
2017-May-16 03:13N 59°36' E 021°27'2 7.6
2017-May-16 03:00N 59°36' E 021°30'4 7.6
2017-May-16 02:29N 59°36' E 021°38'4 7.6
2017-May-16 02:00N 59°36' E 021°45'42 7.7
2017-May-15 20:37N 59°38' E 023°07'1 7.8
2017-May-15 20:27N 59°39' E 023°10'3 7.8
2017-May-15 20:00N 59°40' E 023°17'4 7.9
2017-May-15 19:30N 59°41' E 023°24'4 7.7
2017-May-15 19:00N 59°41' E 023°32'4 7.7
2017-May-15 18:30N 59°42' E 023°39'4 7.8
2017-May-15 18:00N 59°43' E 023°47'4 8.3
2017-May-15 17:30N 59°44' E 023°55'4 8.0
2017-May-15 16:57N 59°45' E 024°03'70 7.8
2017-May-15 07:58N 59°60' E 026°20'4 7.9
2017-May-15 07:30N 60°01' E 026°27'4 7.9
2017-May-15 07:00N 60°02' E 026°34'4 7.7
2017-May-15 06:30N 60°01' E 026°42'4 7.8
2017-May-15 05:59N 60°01' E 026°50'6 7.7
2017-May-15 05:14N 59°60' E 027°02'3 7.7
2017-May-15 04:47N 60°01' E 027°08'3 7.6
2017-May-15 04:25N 60°03' E 027°13'3 7.5
2017-May-15 04:00N 60°04' E 027°18'4 7.5
2017-May-15 03:29N 60°06' E 027°25'4 7.4
2017-May-15 03:00N 60°08' E 027°31'4 7.5
2017-May-15 02:30N 60°10' E 027°37'4 7.5
2017-May-15 02:00N 60°12' E 027°44'4 7.1
2017-May-15 01:30N 60°12' E 027°51'4 7.6
2017-May-15 00:59N 60°10' E 027°59'4 7.6
2017-May-15 00:30N 60°09' E 028°06'4 7.8
2017-May-15 00:00N 60°08' E 028°14'4 7.7
2017-May-14 23:29N 60°06' E 028°21'4 7.9
2017-May-14 23:00N 60°04' E 028°27'4 7.7
2017-May-14 22:30N 60°03' E 028°34'4 7.8
2017-May-14 22:00N 60°03' E 028°42'28 7.9
2017-May-14 18:26N 60°00' E 029°38'4 9.3
2017-May-14 18:00N 59°59' E 029°45'4 8.7
2017-May-14 17:30N 59°57' E 029°53'4 8.8
2017-May-14 17:00N 59°55' E 030°01'4 7.9
2017-May-14 16:30N 59°54' E 030°08'3 5.7
2017-May-14 16:00N 59°54' E 030°14'0 0.3
2017-May-14 15:28N 59°55' E 030°14'0 0.0
2017-May-14 14:58N 59°55' E 030°14'0 0.0
2017-May-14 14:28N 59°55' E 030°14'0 0.0
2017-May-14 13:28N 59°55' E 030°14'0 0.0
2017-May-14 12:58N 59°55' E 030°14'0 0.0
2017-May-14 12:28N 59°55' E 030°14'0 0.0
2017-May-14 11:58N 59°55' E 030°14'0 0.0
2017-May-14 11:28N 59°55' E 030°14'0 0.0
2017-May-14 10:58N 59°55' E 030°14'0 0.0
2017-May-14 10:28N 59°55' E 030°14'0 0.0
2017-May-14 09:58N 59°55' E 030°14'0 0.0
2017-May-14 09:28N 59°55' E 030°14'0 0.0
2017-May-14 08:58N 59°55' E 030°14'0 0.0
2017-May-14 08:25N 59°55' E 030°14'0 0.0
2017-May-14 07:58N 59°55' E 030°14'0 0.0
2017-May-14 07:28N 59°55' E 030°14'0 0.0
2017-May-14 06:58N 59°55' E 030°14'0 0.0
2017-May-14 06:25N 59°55' E 030°14'0 0.0
2017-May-14 05:58N 59°55' E 030°14'0 0.0
2017-May-14 05:29N 59°55' E 030°14'0 0.0
2017-May-14 04:59N 59°55' E 030°14'0 0.0
2017-May-14 04:29N 59°55' E 030°14'0 0.0
2017-May-14 03:59N 59°55' E 030°14'0 0.0
2017-May-14 03:29N 59°55' E 030°14'0 0.0
2017-May-14 02:59N 59°55' E 030°14'0 0.0
2017-May-14 02:29N 59°55' E 030°14'0 0.0
2017-May-14 01:59N 59°55' E 030°14'0 0.0
2017-May-14 01:30N 59°55' E 030°14'1 1.4
2017-May-14 01:00N 59°55' E 030°15'4 7.4
2017-May-14 00:31N 59°57' E 030°21'3 5.9
2017-May-14 00:01N 59°55' E 030°25'5 9.3
2017-May-13 23:30N 59°51' E 030°30'0 0.3
2017-May-13 22:59N 59°51' E 030°30'0 0.0
2017-May-13 22:23N 59°51' E 030°30'0 0.0
2017-May-13 21:59N 59°51' E 030°30'0 0.0
2017-May-13 21:11N 59°51' E 030°30'0 0.0
2017-May-13 20:53N 59°51' E 030°30'0 0.0
2017-May-13 20:26N 59°51' E 030°30'0 0.0
2017-May-13 19:56N 59°51' E 030°30'0 0.0
2017-May-13 19:29N 59°51' E 030°30'0 0.0
2017-May-13 18:50N 59°51' E 030°30'0 0.0
2017-May-13 18:23N 59°51' E 030°30'0 0.0
2017-May-13 17:53N 59°51' E 030°30'0 0.0
2017-May-13 17:29N 59°51' E 030°30'0 0.0
2017-May-13 16:59N 59°51' E 030°30'0 0.0
2017-May-13 16:26N 59°51' E 030°30'0 0.0
2017-May-13 15:56N 59°51' E 030°30'0 0.0
2017-May-13 15:29N 59°51' E 030°30'0 0.0
2017-May-13 14:56N 59°51' E 030°30'0 0.0
2017-May-13 14:26N 59°51' E 030°30'0 0.0
2017-May-13 13:29N 59°51' E 030°30'0 0.0
2017-May-13 12:50N 59°51' E 030°30'0 0.0
2017-May-13 12:30N 59°51' E 030°30'0 0.0
2017-May-13 12:00N 59°51' E 030°30'0 0.1
2017-May-13 11:30N 59°51' E 030°30'0 0.4
2017-May-13 11:00N 59°51' E 030°30'3 6.8
2017-May-13 10:30N 59°49' E 030°36'  

Dump ship's entire track history